Map

Track Data

SID SEASON NUMBER BASIN SUBBASIN NAME ISO_TIME NATURE LAT LON WMO_WIND WMO_PRES WMO_AGENCY TRACK_TYPE DIST2LAND LANDFALL IFLAG USA_AGENCY USA_ATCF_ID USA_LAT USA_LON USA_RECORD USA_STATUS USA_WIND USA_PRES USA_SSHS USA_R34_NE USA_R34_SE USA_R34_SW USA_R34_NW USA_R50_NE USA_R50_SE USA_R50_SW USA_R50_NW USA_R64_NE USA_R64_SE USA_R64_SW USA_R64_NW USA_POCI USA_ROCI USA_RMW USA_EYE TOKYO_LAT TOKYO_LON TOKYO_GRADE TOKYO_WIND TOKYO_PRES TOKYO_R50_DIR TOKYO_R50_LONG TOKYO_R50_SHORT TOKYO_R30_DIR TOKYO_R30_LONG TOKYO_R30_SHORT TOKYO_LAND CMA_LAT CMA_LON CMA_CAT CMA_WIND CMA_PRES HKO_LAT HKO_LON HKO_CAT HKO_WIND HKO_PRES NEWDELHI_LAT NEWDELHI_LON NEWDELHI_GRADE NEWDELHI_WIND NEWDELHI_PRES NEWDELHI_CI NEWDELHI_DP NEWDELHI_POCI REUNION_LAT REUNION_LON REUNION_TYPE REUNION_WIND REUNION_PRES REUNION_TNUM REUNION_CI REUNION_RMW REUNION_R34_NE REUNION_R34_SE REUNION_R34_SW REUNION_R34_NW REUNION_R50_NE REUNION_R50_SE REUNION_R50_SW REUNION_R50_NW REUNION_R64_NE REUNION_R64_SE REUNION_R64_SW REUNION_R64_NW BOM_LAT BOM_LON BOM_TYPE BOM_WIND BOM_PRES BOM_TNUM BOM_CI BOM_RMW BOM_R34_NE BOM_R34_SE BOM_R34_SW BOM_R34_NW BOM_R50_NE BOM_R50_SE BOM_R50_SW BOM_R50_NW BOM_R64_NE BOM_R64_SE BOM_R64_SW BOM_R64_NW BOM_ROCI BOM_POCI BOM_EYE BOM_POS_METHOD BOM_PRES_METHOD NADI_LAT NADI_LON NADI_CAT NADI_WIND NADI_PRES WELLINGTON_LAT WELLINGTON_LON WELLINGTON_WIND WELLINGTON_PRES DS824_LAT DS824_LON DS824_STAGE DS824_WIND DS824_PRES TD9636_LAT TD9636_LON TD9636_STAGE TD9636_WIND TD9636_PRES TD9635_LAT TD9635_LON TD9635_WIND TD9635_PRES TD9635_ROCI NEUMANN_LAT NEUMANN_LON NEUMANN_CLASS NEUMANN_WIND NEUMANN_PRES MLC_LAT MLC_LON MLC_CLASS MLC_WIND MLC_PRES USA_GUST BOM_GUST BOM_GUST_PER REUNION_GUST REUNION_GUST_PER USA_SEAHGT USA_SEARAD_NE USA_SEARAD_SE USA_SEARAD_SW USA_SEARAD_NW STORM_SPEED STORM_DIR
2019339S08064 2020 3 SI MM AMBALI 2019-12-05 00:00:00 NR -7.80000 63.6000 PROVISIONAL 1516 1466 O_____________ tcvitals SI032019 -7.80000 63.6000 35 1006 0 30 30 1010 165 30 9 203
2019339S08064 2020 3 SI MM AMBALI 2019-12-05 03:00:00 NR -8.22250 63.4151 PROVISIONAL 1466 1416 P_____________ SI032019 -8.22250 63.4151 43 1001 0 35 42 1009 165 25 9 206
2019339S08064 2020 3 SI MM AMBALI 2019-12-05 06:00:00 NR -8.60000 63.2000 PROVISIONAL 1416 1377 O_____________ tcvitals SI032019 -8.60000 63.2000 51 997 0 40 55 40 30 1008 165 20 8 214
2019339S08064 2020 3 SI MM AMBALI 2019-12-05 09:00:00 NR -8.90752 62.9425 PROVISIONAL 1372 1333 P_____________ SI032019 -8.90752 62.9425 60 991 0 42 55 40 35 1008 157 15 8 219
2019339S08064 2020 3 SI MM AMBALI 2019-12-05 12:00:00 NR -9.20000 62.7000 PROVISIONAL 1333 1293 O_____________ tcvitals SI032019 -9.20000 62.7000 70 986 1 45 55 40 40 1009 150 10 8 213
2019339S08064 2020 3 SI MM AMBALI 2019-12-05 15:00:00 NR -9.54998 62.5275 PROVISIONAL 1293 1248 P_____________ SI032019 -9.54998 62.5275 84 975 2 55 62 47 42 1009 145 7 8 203
2019339S08064 2020 3 SI MM AMBALI 2019-12-05 18:00:00 NR -9.90000 62.4000 PROVISIONAL 1248 1212 O_____________ tcvitals SI032019 -9.90000 62.4000 99 964 3 65 70 55 45 1010 140 5 7 200
2019339S08064 2020 3 SI MM AMBALI 2019-12-05 21:00:00 NR -10.2150 62.2775 PROVISIONAL 1212 1177 P_____________ SI032019 -10.2150 62.2775 116 946 4 72 77 57 50 1009 140 5 6 198
2019339S08064 2020 3 SI MM AMBALI 2019-12-06 00:00:00 NR -10.5000 62.2000 PROVISIONAL 1177 1157 O_____________ tcvitals SI032019 -10.5000 62.2000 134 929 4 80 85 60 55 1009 140 6 5 190
2019339S08064 2020 3 SI MM AMBALI 2019-12-06 03:00:00 NR -10.7500 62.1850 PROVISIONAL 1157 1126 P_____________ SI032019 -10.7500 62.1850 126 936 4 77 75 60 55 1009 140 5 5 178
2019339S08064 2020 3 SI MM AMBALI 2019-12-06 06:00:00 NR -11.0000 62.2000 PROVISIONAL 1126 1096 O_____________ tcvitals SI032019 -11.0000 62.2000 119 944 4 75 65 60 55 1009 140 5 6 0
2019339S08064 2020 3 SI MM AMBALI 2019-12-06 09:00:00 NR -11.3450 62.1775 PROVISIONAL 1096 1066 P_____________ SI032019 -11.3450 62.1775 104 957 3 72 67 57 50 1009 145 5 6 179
2019339S08064 2020 3 SI MM AMBALI 2019-12-06 12:00:00 NR -11.6000 62.2000 PROVISIONAL 1066 1066 O_____________ tcvitals SI032019 -11.6000 62.2000 89 971 2 70 70 55 45 1009 150 5 3 142
2019339S08064 2020 3 SI MM AMBALI 2019-12-06 15:00:00 NR -11.5575 62.3501 PROVISIONAL 1075 1075 P_____________ SI032019 -11.5575 62.3501 86 973 2 70 70 55 47 1010 150 5 3 71
2019339S08064 2020 3 SI MM AMBALI 2019-12-06 18:00:00 NR -11.5000 62.5000 PROVISIONAL 1090 1070 O_____________ tcvitals SI032019 -11.5000 62.5000 84 975 2 70 70 55 50 1011 150 5 2 142
2019339S08064 2020 3 SI MM AMBALI 2019-12-06 21:00:00 NR -11.7124 62.4776 PROVISIONAL 1070 1041 P_____________ SI032019 -11.7124 62.4776 79 979 1 60 62 50 42 1011 145 5 5 178
2019339S08064 2020 3 SI MM AMBALI 2019-12-07 00:00:00 NR -12.0000 62.5000 PROVISIONAL 1041 1036 O_____________ tcvitals SI032019 -12.0000 62.5000 74 983 1 50 55 45 35 1011 140 5 6 145
2019339S08064 2020 3 SI MM AMBALI 2019-12-07 03:00:00 NR -12.1777 62.8074 PROVISIONAL 1038 1034 P_____________ SI032019 -12.1777 62.8074 67 987 1 37 37 32 32 1010 150 7 7 124
2019339S08064 2020 3 SI MM AMBALI 2019-12-07 06:00:00 NR -12.4000 63.1000 PROVISIONAL 1036 999 O_____________ tcvitals SI032019 -12.4000 63.1000 60 992 0 25 20 20 30 1010 160 10 7 157
2019339S08064 2020 3 SI MM AMBALI 2019-12-07 09:00:00 NR -12.7775 63.0728 PROVISIONAL 999 956 P_____________ SI032019 -12.7775 63.0728 55 993 0 27 22 22 32 1008 132 10 8 187
2019339S08064 2020 3 SI MM AMBALI 2019-12-07 12:00:00 NR -13.2000 63.0000 PROVISIONAL 956 942 O_____________ tcvitals SI032019 -13.2000 63.0000 51 995 0 30 25 25 35 1007 105 10 8 169
2019339S08064 2020 3 SI MM AMBALI 2019-12-07 15:00:00 NR -13.5349 63.2243 PROVISIONAL 942 914 P_____________ SI032019 -13.5349 63.2243 51 996 0 42 42 40 37 1008 122 10 8 157
2019339S08064 2020 3 SI MM AMBALI 2019-12-07 18:00:00 NR -13.9000 63.3000 PROVISIONAL 914 836 O_____________ tcvitals SI032019 -13.9000 63.3000 51 998 0 55 60 55 40 1010 140 10 10 204
2019339S08064 2020 3 SI MM AMBALI 2019-12-07 21:00:00 NR -14.4305 62.8110 PROVISIONAL 836 752 P_____________ SI032019 -14.4305 62.8110 43 1002 0 55 60 47 52 1010 140 10 15 227
2019339S08064 2020 3 SI MM AMBALI 2019-12-08 00:00:00 NR -14.9000 62.2000 PROVISIONAL 752 714 O_____________ tcvitals SI032019 -14.9000 62.2000 35 1006 0 55 60 40 65 1010 140 10 12 233
2019339S08064 2020 3 SI MM AMBALI 2019-12-08 03:00:00 NR -15.1271 61.8544 PROVISIONAL 714 692 P_____________ SI032019 -15.1271 61.8544 30 1007 -1 1010 142 10 6 238
2019339S08064 2020 3 SI MM AMBALI 2019-12-08 06:00:00 NR -15.2000 61.7000 PROVISIONAL 692 O_____________ tcvitals SI032019 -15.2000 61.7000 25 1009 -1 1011 145 10 3 243

About IBTrACS Database

This database is a web-friendly format of International Best Track Archive for Climate Stewardship (IBTrACS), a global best track data archive curated by NOAA dating back to 1842.

Updated: 2021-10-25